KMRN/MRN METAR and TAF weather

Enter ICAO airport designator
Station Type Date Time Source
KMRN METAR 2019/07/17 12:55 UTC NOAA

KMRN 171255Z AUTO 24003KT 10SM CLR 23/18 A3015 RMK AO2 T02300178


Station Type Date Time Source
KMRN Decoded METAR 2019/07/17 12:55 UTC NOAA

Morganton, Morganton-Lenoir Airport, NC, United States (KMRN) 35-49-17N 081-36-39W
Jul 17, 2019 - 08:55 AM EDT / 2019.07.17 1255 UTC
Wind: from the WSW (240 degrees) at 3 MPH (3 KT):0
Visibility: 10 mile(s):0
Sky conditions: clear
Temperature: 73.4 F (23.0 C)
Dew Point: 64.0 F (17.8 C)
Relative Humidity: 72%
Pressure (altimeter): 30.15 in. Hg (1020 hPa)
ob: KMRN 171255Z AUTO 24003KT 10SM CLR 23/18 A3015 RMK AO2 T02300178
cycle: 13

Station Type Date Time Source
KMRN TAF UTC NOAA

Error!

Example: see airport list